sensor_id;sensor_type;location;lat;lon;timestamp;pressure;altitude;pressure_sealevel;temperature;humidity
58947;BME280;44724;52.332;4.978;2022-11-13T00:01:37;102896.59;;;6.28;100.00
58947;BME280;44724;52.332;4.978;2022-11-13T00:04:20;102894.91;;;6.27;100.00
58947;BME280;44724;52.332;4.978;2022-11-13T00:07:04;102887.91;;;6.25;100.00
58947;BME280;44724;52.332;4.978;2022-11-13T00:09:48;102885.38;;;6.23;100.00
58947;BME280;44724;52.332;4.978;2022-11-13T00:12:32;102885.81;;;6.20;100.00
58947;BME280;44724;52.332;4.978;2022-11-13T00:15:16;102885.81;;;6.20;100.00
58947;BME280;44724;52.332;4.978;2022-11-13T00:18:01;102881.56;;;6.18;100.00
58947;BME280;44724;52.332;4.978;2022-11-13T00:20:45;102875.03;;;6.19;100.00
58947;BME280;44724;52.332;4.978;2022-11-13T00:23:31;102860.44;;;6.18;100.00
58947;BME280;44724;52.332;4.978;2022-11-13T00:26:23;102868.69;;;6.18;100.00
58947;BME280;44724;52.332;4.978;2022-11-13T00:29:08;102863.41;;;6.17;100.00
58947;BME280;44724;52.332;4.978;2022-11-13T00:31:52;102857.69;;;6.18;100.00
58947;BME280;44724;52.332;4.978;2022-11-13T00:34:36;102852.84;;;6.20;100.00
58947;BME280;44724;52.332;4.978;2022-11-13T00:37:20;102851.75;;;6.21;100.00
58947;BME280;44724;52.332;4.978;2022-11-13T00:40:04;102851.97;;;6.20;100.00
58947;BME280;44724;52.332;4.978;2022-11-13T00:42:48;102846.91;;;6.17;100.00
58947;BME280;44724;52.332;4.978;2022-11-13T00:45:32;102833.16;;;6.17;100.00
58947;BME280;44724;52.332;4.978;2022-11-13T00:48:16;102830.63;;;6.15;100.00
58947;BME280;44724;52.332;4.978;2022-11-13T00:51:00;102830.84;;;6.14;100.00
58947;BME280;44724;52.332;4.978;2022-11-13T00:53:44;102824.50;;;6.13;100.00
58947;BME280;44724;52.332;4.978;2022-11-13T00:56:28;102821.09;;;6.11;100.00
58947;BME280;44724;52.332;4.978;2022-11-13T00:59:12;102818.78;;;6.08;100.00
58947;BME280;44724;52.332;4.978;2022-11-13T01:01:56;102817.09;;;6.07;100.00
58947;BME280;44724;52.332;4.978;2022-11-13T01:04:41;102819.41;;;6.03;100.00
58947;BME280;44724;52.332;4.978;2022-11-13T01:07:25;102805.88;;;6.02;100.00
58947;BME280;44724;52.332;4.978;2022-11-13T01:10:09;102802.50;;;6.00;100.00
58947;BME280;44724;52.332;4.978;2022-11-13T01:12:53;102801.03;;;5.97;100.00
58947;BME280;44724;52.332;4.978;2022-11-13T01:15:39;102799.50;;;5.95;100.00
58947;BME280;44724;52.332;4.978;2022-11-13T01:18:23;102802.25;;;5.95;100.00
58947;BME280;44724;52.332;4.978;2022-11-13T01:21:19;102801.41;;;5.94;100.00
58947;BME280;44724;52.332;4.978;2022-11-13T01:24:03;102798.88;;;5.93;100.00
58947;BME280;44724;52.332;4.978;2022-11-13T01:26:47;102799.94;;;5.92;100.00
58947;BME280;44724;52.332;4.978;2022-11-13T01:29:31;102802.03;;;5.89;100.00
58947;BME280;44724;52.332;4.978;2022-11-13T01:32:15;102788.28;;;5.89;100.00
58947;BME280;44724;52.332;4.978;2022-11-13T01:34:59;102791.03;;;5.89;100.00
58947;BME280;44724;52.332;4.978;2022-11-13T01:37:43;102787.88;;;5.93;100.00
58947;BME280;44724;52.332;4.978;2022-11-13T01:40:26;102789.59;;;5.94;100.00
58947;BME280;44724;52.332;4.978;2022-11-13T01:43:19;102788.50;;;5.95;100.00
58947;BME280;44724;52.332;4.978;2022-11-13T01:46:20;102785.75;;;5.95;100.00
58947;BME280;44724;52.332;4.978;2022-11-13T01:51:58;102792.13;;;6.02;100.00
58947;BME280;44724;52.332;4.978;2022-11-13T01:54:47;102811.59;;;6.07;100.00
58947;BME280;44724;52.332;4.978;2022-11-13T01:57:33;102800.59;;;6.07;100.00
58947;BME280;44724;52.332;4.978;2022-11-13T02:00:18;102795.09;;;6.07;100.00
58947;BME280;44724;52.332;4.978;2022-11-13T02:03:02;102793.59;;;6.11;100.00
58947;BME280;44724;52.332;4.978;2022-11-13T02:05:46;102792.78;;;6.11;100.00
58947;BME280;44724;52.332;4.978;2022-11-13T02:08:30;102797.00;;;6.13;100.00
58947;BME280;44724;52.332;4.978;2022-11-13T02:11:14;102798.69;;;6.14;100.00
58947;BME280;44724;52.332;4.978;2022-11-13T02:13:59;102795.31;;;6.12;100.00
58947;BME280;44724;52.332;4.978;2022-11-13T02:16:46;102788.09;;;6.11;100.00
58947;BME280;44724;52.332;4.978;2022-11-13T02:19:39;102785.59;;;6.09;100.00
58947;BME280;44724;52.332;4.978;2022-11-13T02:23:03;102773.75;;;6.09;100.00
58947;BME280;44724;52.332;4.978;2022-11-13T02:25:51;102781.97;;;6.09;100.00
58947;BME280;44724;52.332;4.978;2022-11-13T02:28:35;102785.59;;;6.09;100.00
58947;BME280;44724;52.332;4.978;2022-11-13T02:31:19;102782.44;;;6.06;100.00
58947;BME280;44724;52.332;4.978;2022-11-13T02:34:03;102779.69;;;6.06;100.00
58947;BME280;44724;52.332;4.978;2022-11-13T02:36:48;102775.03;;;6.06;100.00
58947;BME280;44724;52.332;4.978;2022-11-13T02:39:31;102767.81;;;6.05;100.00
58947;BME280;44724;52.332;4.978;2022-11-13T02:42:15;102763.59;;;6.03;100.00
58947;BME280;44724;52.332;4.978;2022-11-13T02:44:59;102774.19;;;6.06;100.00
58947;BME280;44724;52.332;4.978;2022-11-13T02:47:44;102780.09;;;6.09;100.00
58947;BME280;44724;52.332;4.978;2022-11-13T02:50:28;102781.78;;;6.17;100.00
58947;BME280;44724;52.332;4.978;2022-11-13T02:53:12;102781.78;;;6.24;100.00
58947;BME280;44724;52.332;4.978;2022-11-13T02:55:55;102777.75;;;6.26;100.00
58947;BME280;44724;52.332;4.978;2022-11-13T02:58:40;102778.59;;;6.27;100.00
58947;BME280;44724;52.332;4.978;2022-11-13T03:01:23;102766.97;;;6.25;100.00
58947;BME280;44724;52.332;4.978;2022-11-13T03:04:08;102767.59;;;6.27;100.00
58947;BME280;44724;52.332;4.978;2022-11-13T03:06:52;102754.72;;;6.27;100.00
58947;BME280;44724;52.332;4.978;2022-11-13T03:09:36;102751.97;;;6.27;100.00
58947;BME280;44724;52.332;4.978;2022-11-13T03:12:19;102752.81;;;6.28;100.00
58947;BME280;44724;52.332;4.978;2022-11-13T03:15:05;102743.72;;;6.27;100.00
58947;BME280;44724;52.332;4.978;2022-11-13T03:17:49;102743.72;;;6.27;100.00
58947;BME280;44724;52.332;4.978;2022-11-13T03:20:35;102739.47;;;6.32;100.00
58947;BME280;44724;52.332;4.978;2022-11-13T03:23:19;102733.13;;;6.31;100.00
58947;BME280;44724;52.332;4.978;2022-11-13T03:26:05;102728.06;;;6.35;100.00
58947;BME280;44724;52.332;4.978;2022-11-13T03:28:50;102724.22;;;6.36;100.00
58947;BME280;44724;52.332;4.978;2022-11-13T03:31:33;102719.81;;;6.35;100.00
58947;BME280;44724;52.332;4.978;2022-11-13T03:34:18;102714.31;;;6.35;100.00
58947;BME280;44724;52.332;4.978;2022-11-13T03:37:01;102724.22;;;6.36;100.00
58947;BME280;44724;52.332;4.978;2022-11-13T03:39:45;102718.31;;;6.32;100.00
58947;BME280;44724;52.332;4.978;2022-11-13T03:42:29;102713.91;;;6.31;100.00
58947;BME280;44724;52.332;4.978;2022-11-13T03:45:14;102709.44;;;6.30;100.00
58947;BME280;44724;52.332;4.978;2022-11-13T03:47:57;102719.59;;;6.30;100.00
58947;BME280;44724;52.332;4.978;2022-11-13T03:50:43;102712.41;;;6.28;100.00
58947;BME280;44724;52.332;4.978;2022-11-13T03:53:28;102706.91;;;6.28;100.00
58947;BME280;44724;52.332;4.978;2022-11-13T03:56:12;102705.22;;;6.27;100.00
58947;BME280;44724;52.332;4.978;2022-11-13T03:58:55;102708.19;;;6.26;100.00
58947;BME280;44724;52.332;4.978;2022-11-13T04:01:39;102711.16;;;6.24;100.00
58947;BME280;44724;52.332;4.978;2022-11-13T04:04:23;102704.81;;;6.24;100.00
58947;BME280;44724;52.332;4.978;2022-11-13T04:07:07;102709.91;;;6.20;100.00
58947;BME280;44724;52.332;4.978;2022-11-13T04:09:51;102721.31;;;6.17;100.00
58947;BME280;44724;52.332;4.978;2022-11-13T04:12:35;102717.53;;;6.18;100.00
58947;BME280;44724;52.332;4.978;2022-11-13T04:15:19;102718.16;;;6.20;100.00
58947;BME280;44724;52.332;4.978;2022-11-13T04:18:04;102721.94;;;6.19;100.00
58947;BME280;44724;52.332;4.978;2022-11-13T04:20:48;102714.13;;;6.16;100.00
58947;BME280;44724;52.332;4.978;2022-11-13T04:23:32;102712.03;;;6.12;100.00
58947;BME280;44724;52.332;4.978;2022-11-13T04:26:16;102703.16;;;6.09;100.00
58947;BME280;44724;52.332;4.978;2022-11-13T04:29:00;102700.41;;;6.09;100.00
58947;BME280;44724;52.332;4.978;2022-11-13T04:31:44;102695.34;;;6.06;100.00
58947;BME280;44724;52.332;4.978;2022-11-13T04:34:28;102694.50;;;6.06;100.00
58947;BME280;44724;52.332;4.978;2022-11-13T04:37:12;102694.72;;;6.04;100.00
58947;BME280;44724;52.332;4.978;2022-11-13T04:39:56;102688.59;;;6.02;100.00
58947;BME280;44724;52.332;4.978;2022-11-13T04:42:40;102679.47;;;6.02;100.00
58947;BME280;44724;52.332;4.978;2022-11-13T04:45:42;102690.66;;;6.00;100.00
58947;BME280;44724;52.332;4.978;2022-11-13T04:48:26;102688.78;;;6.01;100.00
58947;BME280;44724;52.332;4.978;2022-11-13T04:51:10;102682.66;;;5.99;100.00
58947;BME280;44724;52.332;4.978;2022-11-13T04:53:54;102684.97;;;5.95;100.00
58947;BME280;44724;52.332;4.978;2022-11-13T04:56:38;102682.63;;;5.92;100.00
58947;BME280;44724;52.332;4.978;2022-11-13T04:59:22;102682.84;;;5.90;100.00
58947;BME280;44724;52.332;4.978;2022-11-13T05:02:07;102685.81;;;5.89;100.00
58947;BME280;44724;52.332;4.978;2022-11-13T05:04:51;102680.09;;;5.90;100.00
58947;BME280;44724;52.332;4.978;2022-11-13T05:07:35;102672.28;;;5.87;100.00
58947;BME280;44724;52.332;4.978;2022-11-13T05:10:20;102679.47;;;5.88;100.00
58947;BME280;44724;52.332;4.978;2022-11-13T05:13:04;102672.28;;;5.87;100.00
58947;BME280;44724;52.332;4.978;2022-11-13T05:15:48;102670.16;;;5.89;100.00
58947;BME280;44724;52.332;4.978;2022-11-13T05:18:33;102674.59;;;5.90;100.00
58947;BME280;44724;52.332;4.978;2022-11-13T05:21:17;102663.63;;;5.90;100.00
58947;BME280;44724;52.332;4.978;2022-11-13T05:24:02;102664.44;;;5.91;100.00
58947;BME280;44724;52.332;4.978;2022-11-13T05:26:46;102654.97;;;5.87;100.00
58947;BME280;44724;52.332;4.978;2022-11-13T05:29:30;102651.38;;;5.86;100.00
58947;BME280;44724;52.332;4.978;2022-11-13T05:32:14;102656.66;;;5.81;100.00
58947;BME280;44724;52.332;4.978;2022-11-13T05:34:58;102656.25;;;5.78;100.00
58947;BME280;44724;52.332;4.978;2022-11-13T05:37:42;102654.97;;;5.74;100.00
58947;BME280;44724;52.332;4.978;2022-11-13T05:40:26;102659.19;;;5.69;100.00
58947;BME280;44724;52.332;4.978;2022-11-13T05:43:10;102650.94;;;5.63;100.00
58947;BME280;44724;52.332;4.978;2022-11-13T05:46:01;102642.75;;;5.56;100.00
58947;BME280;44724;52.332;4.978;2022-11-13T05:48:50;102648.22;;;5.49;100.00
58947;BME280;44724;52.332;4.978;2022-11-13T05:51:34;102646.94;;;5.45;100.00
58947;BME280;44724;52.332;4.978;2022-11-13T05:54:18;102649.69;;;5.45;100.00
58947;BME280;44724;52.332;4.978;2022-11-13T05:57:02;102648.22;;;5.43;100.00
58947;BME280;44724;52.332;4.978;2022-11-13T05:59:45;102651.59;;;5.38;100.00
58947;BME280;44724;52.332;4.978;2022-11-13T06:02:30;102633.00;;;5.33;100.00
58947;BME280;44724;52.332;4.978;2022-11-13T06:05:13;102641.47;;;5.32;100.00
58947;BME280;44724;52.332;4.978;2022-11-13T06:07:57;102635.53;;;5.28;100.00
58947;BME280;44724;52.332;4.978;2022-11-13T06:10:41;102631.97;;;5.28;100.00
58947;BME280;44724;52.332;4.978;2022-11-13T06:13:25;102637.88;;;5.25;100.00
58947;BME280;44724;52.332;4.978;2022-11-13T06:16:10;102634.28;;;5.24;100.00
58947;BME280;44724;52.332;4.978;2022-11-13T06:18:59;102635.53;;;5.22;100.00
58947;BME280;44724;52.332;4.978;2022-11-13T06:21:44;102630.69;;;5.17;100.00
58947;BME280;44724;52.332;4.978;2022-11-13T06:24:28;102627.06;;;5.17;100.00
58947;BME280;44724;52.332;4.978;2022-11-13T06:27:12;102626.44;;;5.14;100.00
58947;BME280;44724;52.332;4.978;2022-11-13T06:29:56;102625.81;;;5.12;100.00
58947;BME280;44724;52.332;4.978;2022-11-13T06:32:40;102623.94;;;5.06;100.00
58947;BME280;44724;52.332;4.978;2022-11-13T06:35:24;102625.81;;;5.06;100.00
58947;BME280;44724;52.332;4.978;2022-11-13T06:38:08;102620.97;;;5.01;100.00
58947;BME280;44724;52.332;4.978;2022-11-13T06:40:52;102622.19;;;4.99;100.00
58947;BME280;44724;52.332;4.978;2022-11-13T06:43:36;102616.91;;;4.97;100.00
58947;BME280;44724;52.332;4.978;2022-11-13T06:46:23;102615.25;;;4.96;100.00
58947;BME280;44724;52.332;4.978;2022-11-13T06:49:10;102607.03;;;4.96;100.00
58947;BME280;44724;52.332;4.978;2022-11-13T06:51:54;102615.25;;;4.96;100.00
58947;BME280;44724;52.332;4.978;2022-11-13T06:54:38;102618.19;;;4.94;100.00
58947;BME280;44724;52.332;4.978;2022-11-13T06:57:21;102613.75;;;4.93;100.00
58947;BME280;44724;52.332;4.978;2022-11-13T07:00:06;102614.81;;;4.92;100.00
58947;BME280;44724;52.332;4.978;2022-11-13T07:02:50;102611.88;;;4.94;100.00
58947;BME280;44724;52.332;4.978;2022-11-13T07:05:37;102607.44;;;4.93;100.00
58947;BME280;44724;52.332;4.978;2022-11-13T07:08:21;102606.59;;;4.92;100.00
58947;BME280;44724;52.332;4.978;2022-11-13T07:11:05;102607.44;;;4.93;100.00
58947;BME280;44724;52.332;4.978;2022-11-13T07:13:50;102606.59;;;4.92;100.00
58947;BME280;44724;52.332;4.978;2022-11-13T07:16:34;102608.47;;;4.92;100.00
58947;BME280;44724;52.332;4.978;2022-11-13T07:19:18;102602.78;;;4.93;100.00
58947;BME280;44724;52.332;4.978;2022-11-13T07:22:02;102603.19;;;4.97;100.00
58947;BME280;44724;52.332;4.978;2022-11-13T07:24:46;102601.31;;;4.98;100.00
58947;BME280;44724;52.332;4.978;2022-11-13T07:27:33;102589.91;;;5.01;100.00
58947;BME280;44724;52.332;4.978;2022-11-13T07:30:18;102593.09;;;5.04;100.00
58947;BME280;44724;52.332;4.978;2022-11-13T07:33:03;102588.88;;;5.08;100.00
58947;BME280;44724;52.332;4.978;2022-11-13T07:35:46;102591.84;;;5.13;100.00
58947;BME280;44724;52.332;4.978;2022-11-13T07:38:30;102591.00;;;5.20;100.00
58947;BME280;44724;52.332;4.978;2022-11-13T07:41:14;102590.34;;;5.31;100.00
58947;BME280;44724;52.332;4.978;2022-11-13T07:43:58;102588.66;;;5.43;100.00
58947;BME280;44724;52.332;4.978;2022-11-13T07:46:42;102591.19;;;5.58;100.00
58947;BME280;44724;52.332;4.978;2022-11-13T07:49:26;102589.28;;;5.72;100.00
58947;BME280;44724;52.332;4.978;2022-11-13T07:52:10;102593.88;;;5.98;100.00
58947;BME280;44724;52.332;4.978;2022-11-13T07:54:57;102600.38;;;6.17;100.00
58947;BME280;44724;52.332;4.978;2022-11-13T07:57:41;102606.00;;;6.36;100.00
58947;BME280;44724;52.332;4.978;2022-11-13T08:00:26;102618.63;;;6.50;100.00
58947;BME280;44724;52.332;4.978;2022-11-13T08:03:15;102605.88;;;6.62;100.00
58947;BME280;44724;52.332;4.978;2022-11-13T08:06:02;102610.50;;;6.75;100.00
58947;BME280;44724;52.332;4.978;2022-11-13T08:08:47;102605.72;;;6.89;100.00
58947;BME280;44724;52.332;4.978;2022-11-13T08:11:32;102603.31;;;7.06;100.00
58947;BME280;44724;52.332;4.978;2022-11-13T08:14:16;102601.91;;;7.22;100.00
58947;BME280;44724;52.332;4.978;2022-11-13T08:17:00;102597.53;;;7.39;100.00
58947;BME280;44724;52.332;4.978;2022-11-13T08:19:44;102606.63;;;7.65;100.00
58947;BME280;44724;52.332;4.978;2022-11-13T08:22:29;102602.16;;;7.89;100.00
58947;BME280;44724;52.332;4.978;2022-11-13T08:25:13;102585.53;;;8.14;100.00
58947;BME280;44724;52.332;4.978;2022-11-13T08:27:58;102581.22;;;8.37;100.00
58947;BME280;44724;52.332;4.978;2022-11-13T08:30:43;102569.00;;;8.63;100.00
58947;BME280;44724;52.332;4.978;2022-11-13T08:33:28;102555.06;;;8.88;100.00
58947;BME280;44724;52.332;4.978;2022-11-13T08:36:12;102563.03;;;9.08;100.00
58947;BME280;44724;52.332;4.978;2022-11-13T08:38:56;102545.53;;;9.26;100.00
58947;BME280;44724;52.332;4.978;2022-11-13T08:41:40;102555.97;;;9.48;100.00
58947;BME280;44724;52.332;4.978;2022-11-13T08:44:24;102568.22;;;9.64;100.00
58947;BME280;44724;52.332;4.978;2022-11-13T08:47:08;102551.75;;;9.81;100.00
58947;BME280;44724;52.332;4.978;2022-11-13T08:49:53;102540.44;;;9.94;100.00
58947;BME280;44724;52.332;4.978;2022-11-13T08:52:37;102539.31;;;10.07;100.00
58947;BME280;44724;52.332;4.978;2022-11-13T08:55:25;102545.41;;;10.21;100.00
58947;BME280;44724;52.332;4.978;2022-11-13T08:58:09;102550.94;;;10.33;100.00
58947;BME280;44724;52.332;4.978;2022-11-13T09:00:58;102548.03;;;10.39;100.00
58947;BME280;44724;52.332;4.978;2022-11-13T09:03:43;102545.19;;;10.51;100.00
58947;BME280;44724;52.332;4.978;2022-11-13T09:06:27;102547.69;;;10.64;100.00
58947;BME280;44724;52.332;4.978;2022-11-13T09:09:11;102549.59;;;10.64;100.00
58947;BME280;44724;52.332;4.978;2022-11-13T09:11:55;102532.59;;;10.72;100.00
58947;BME280;44724;52.332;4.978;2022-11-13T09:14:39;102538.31;;;10.82;100.00
58947;BME280;44724;52.332;4.978;2022-11-13T09:17:22;102534.03;;;10.92;100.00
58947;BME280;44724;52.332;4.978;2022-11-13T09:20:07;102514.06;;;10.90;100.00
58947;BME280;44724;52.332;4.978;2022-11-13T09:23:05;102514.66;;;10.92;100.00
58947;BME280;44724;52.332;4.978;2022-11-13T09:25:51;102503.84;;;11.07;100.00
58947;BME280;44724;52.332;4.978;2022-11-13T09:28:35;102501.75;;;11.14;100.00
58947;BME280;44724;52.332;4.978;2022-11-13T09:31:19;102507.03;;;11.16;100.00
58947;BME280;44724;52.332;4.978;2022-11-13T09:34:03;102494.25;;;11.15;100.00
58947;BME280;44724;52.332;4.978;2022-11-13T09:36:47;102503.16;;;11.17;100.00
58947;BME280;44724;52.332;4.978;2022-11-13T09:39:31;102501.56;;;11.21;100.00
58947;BME280;44724;52.332;4.978;2022-11-13T09:42:18;102503.94;;;11.12;100.00
58947;BME280;44724;52.332;4.978;2022-11-13T09:45:09;102505.25;;;11.27;100.00
58947;BME280;44724;52.332;4.978;2022-11-13T09:48:10;102510.88;;;11.32;100.00
58947;BME280;44724;52.332;4.978;2022-11-13T09:50:56;102493.47;;;11.36;100.00
58947;BME280;44724;52.332;4.978;2022-11-13T09:53:42;102504.63;;;11.58;100.00
58947;BME280;44724;52.332;4.978;2022-11-13T09:56:33;102485.97;;;11.54;100.00
58947;BME280;44724;52.332;4.978;2022-11-13T09:59:31;102477.41;;;11.55;100.00
58947;BME280;44724;52.332;4.978;2022-11-13T10:02:44;102486.28;;;11.57;100.00
58947;BME280;44724;52.332;4.978;2022-11-13T10:05:42;102477.94;;;11.74;100.00
58947;BME280;44724;52.332;4.978;2022-11-13T10:08:35;102471.28;;;11.75;100.00
58947;BME280;44724;52.332;4.978;2022-11-13T10:14:19;102469.13;;;12.00;100.00
58947;BME280;44724;52.332;4.978;2022-11-13T10:20:00;102459.41;;;12.24;100.00
58947;BME280;44724;52.332;4.978;2022-11-13T10:22:51;102459.56;;;12.40;100.00
58947;BME280;44724;52.332;4.978;2022-11-13T10:25:37;102455.47;;;12.47;100.00
58947;BME280;44724;52.332;4.978;2022-11-13T10:28:24;102451.13;;;12.57;100.00
58947;BME280;44724;52.332;4.978;2022-11-13T10:31:10;102439.81;;;12.68;100.00
58947;BME280;44724;52.332;4.978;2022-11-13T10:33:55;102442.13;;;12.77;100.00
58947;BME280;44724;52.332;4.978;2022-11-13T10:39:45;102430.28;;;12.91;100.00
58947;BME280;44724;52.332;4.978;2022-11-13T10:42:40;102416.72;;;12.95;100.00
58947;BME280;44724;52.332;4.978;2022-11-13T10:45:24;102417.94;;;13.09;100.00
58947;BME280;44724;52.332;4.978;2022-11-13T10:48:29;102415.19;;;13.15;100.00
58947;BME280;44724;52.332;4.978;2022-11-13T10:51:34;102401.28;;;13.20;100.00
58947;BME280;44724;52.332;4.978;2022-11-13T10:54:25;102388.84;;;13.27;100.00
58947;BME280;44724;52.332;4.978;2022-11-13T10:57:42;102394.75;;;13.36;100.00
58947;BME280;44724;52.332;4.978;2022-11-13T11:00:38;102382.03;;;13.50;100.00
58947;BME280;44724;52.332;4.978;2022-11-13T11:03:24;102377.81;;;13.43;100.00
58947;BME280;44724;52.332;4.978;2022-11-13T11:06:09;102377.03;;;13.53;100.00
58947;BME280;44724;52.332;4.978;2022-11-13T11:09:04;102364.25;;;13.62;100.00
58947;BME280;44724;52.332;4.978;2022-11-13T11:12:11;102354.81;;;13.63;100.00
58947;BME280;44724;52.332;4.978;2022-11-13T11:15:22;102352.66;;;13.80;100.00
58947;BME280;44724;52.332;4.978;2022-11-13T11:18:27;102345.94;;;13.76;100.00
58947;BME280;44724;52.332;4.978;2022-11-13T11:21:15;102342.66;;;13.90;100.00
58947;BME280;44724;52.332;4.978;2022-11-13T11:24:26;102338.19;;;13.94;100.00
58947;BME280;44724;52.332;4.978;2022-11-13T11:27:24;102331.81;;;13.93;100.00
58947;BME280;44724;52.332;4.978;2022-11-13T11:30:33;102331.81;;;14.14;100.00
58947;BME280;44724;52.332;4.978;2022-11-13T11:33:31;102320.69;;;14.29;100.00
58947;BME280;44724;52.332;4.978;2022-11-13T11:39:39;102324.84;;;14.47;100.00
58947;BME280;44724;52.332;4.978;2022-11-13T11:45:25;102315.09;;;14.75;100.00
58947;BME280;44724;52.332;4.978;2022-11-13T11:48:19;102308.88;;;15.09;100.00
58947;BME280;44724;52.332;4.978;2022-11-13T11:55:02;102295.03;;;15.44;100.00
58947;BME280;44724;52.332;4.978;2022-11-13T11:57:47;102284.09;;;15.57;100.00
58947;BME280;44724;52.332;4.978;2022-11-13T12:00:34;102291.63;;;15.57;100.00
58947;BME280;44724;52.332;4.978;2022-11-13T12:09:14;102268.97;;;16.08;100.00
58947;BME280;44724;52.332;4.978;2022-11-13T12:12:18;102277.34;;;16.67;100.00
58947;BME280;44724;52.332;4.978;2022-11-13T12:15:14;102273.69;;;17.20;100.00
58947;BME280;44724;52.332;4.978;2022-11-13T12:18:10;102266.91;;;17.45;100.00
58947;BME280;44724;52.332;4.978;2022-11-13T12:21:09;102255.94;;;17.86;100.00
58947;BME280;44724;52.332;4.978;2022-11-13T12:26:50;102248.44;;;18.48;100.00
58947;BME280;44724;52.332;4.978;2022-11-13T12:29:51;102244.50;;;18.62;100.00
58947;BME280;44724;52.332;4.978;2022-11-13T12:35:28;102234.94;;;17.84;100.00
58947;BME280;44724;52.332;4.978;2022-11-13T12:44:23;102230.78;;;18.61;100.00
58947;BME280;44724;52.332;4.978;2022-11-13T12:47:08;102218.22;;;19.00;100.00
58947;BME280;44724;52.332;4.978;2022-11-13T12:50:22;102214.91;;;18.98;100.00
58947;BME280;44724;52.332;4.978;2022-11-13T12:53:07;102212.94;;;18.71;100.00
58947;BME280;44724;52.332;4.978;2022-11-13T12:56:01;102209.91;;;18.39;100.00
58947;BME280;44724;52.332;4.978;2022-11-13T12:58:58;102205.72;;;18.23;100.00
58947;BME280;44724;52.332;4.978;2022-11-13T13:05:05;102201.19;;;17.23;100.00
58947;BME280;44724;52.332;4.978;2022-11-13T13:14:17;102197.34;;;16.71;100.00
58947;BME280;44724;52.332;4.978;2022-11-13T13:17:17;102194.25;;;16.48;100.00
58947;BME280;44724;52.332;4.978;2022-11-13T13:20:06;102187.59;;;16.44;100.00
58947;BME280;44724;52.332;4.978;2022-11-13T13:23:12;102187.28;;;16.22;100.00
58947;BME280;44724;52.332;4.978;2022-11-13T13:29:07;102167.19;;;15.95;100.00
58947;BME280;44724;52.332;4.978;2022-11-13T13:32:11;102166.22;;;15.81;100.00
58947;BME280;44724;52.332;4.978;2022-11-13T13:38:37;102163.00;;;15.58;100.00
58947;BME280;44724;52.332;4.978;2022-11-13T13:44:51;102154.78;;;15.38;100.00
58947;BME280;44724;52.332;4.978;2022-11-13T13:47:44;102163.31;;;15.17;100.00
58947;BME280;44724;52.332;4.978;2022-11-13T13:50:32;102159.13;;;15.15;100.00
58947;BME280;44724;52.332;4.978;2022-11-13T13:53:22;102155.78;;;15.13;100.00
58947;BME280;44724;52.332;4.978;2022-11-13T13:56:10;102152.69;;;15.19;100.00
58947;BME280;44724;52.332;4.978;2022-11-13T13:58:54;102150.50;;;15.11;100.00
58947;BME280;44724;52.332;4.978;2022-11-13T14:01:52;102151.00;;;15.18;100.00
58947;BME280;44724;52.332;4.978;2022-11-13T14:04:45;102144.84;;;15.27;100.00
58947;BME280;44724;52.332;4.978;2022-11-13T14:07:30;102136.66;;;15.40;100.00
58947;BME280;44724;52.332;4.978;2022-11-13T14:10:21;102136.94;;;15.39;100.00
58947;BME280;44724;52.332;4.978;2022-11-13T14:13:11;102125.50;;;15.40;100.00
58947;BME280;44724;52.332;4.978;2022-11-13T14:16:00;102127.16;;;15.42;100.00
58947;BME280;44724;52.332;4.978;2022-11-13T14:18:44;102125.50;;;15.40;100.00
58947;BME280;44724;52.332;4.978;2022-11-13T14:21:28;102122.16;;;15.38;100.00
58947;BME280;44724;52.332;4.978;2022-11-13T14:24:21;102113.81;;;15.38;100.00
58947;BME280;44724;52.332;4.978;2022-11-13T14:27:10;102114.94;;;15.32;100.00
58947;BME280;44724;52.332;4.978;2022-11-13T14:30:01;102111.34;;;15.32;100.00
58947;BME280;44724;52.332;4.978;2022-11-13T14:32:45;102109.41;;;15.27;100.00
58947;BME280;44724;52.332;4.978;2022-11-13T14:35:29;102108.44;;;15.08;100.00
58947;BME280;44724;52.332;4.978;2022-11-13T14:38:25;102109.63;;;14.96;100.00
58947;BME280;44724;52.332;4.978;2022-11-13T14:41:39;102115.56;;;14.79;100.00
58947;BME280;44724;52.332;4.978;2022-11-13T14:44:32;102115.31;;;14.76;100.00
58947;BME280;44724;52.332;4.978;2022-11-13T14:47:22;102109.78;;;14.66;100.00
58947;BME280;44724;52.332;4.978;2022-11-13T14:50:31;102107.59;;;14.57;100.00
58947;BME280;44724;52.332;4.978;2022-11-13T14:53:54;102108.19;;;14.44;100.00
58947;BME280;44724;52.332;4.978;2022-11-13T14:56:33;102109.09;;;14.34;100.00
58947;BME280;44724;52.332;4.978;2022-11-13T14:59:24;102106.34;;;14.19;100.00
58947;BME280;44724;52.332;4.978;2022-11-13T15:02:10;102108.06;;;14.04;100.00
58947;BME280;44724;52.332;4.978;2022-11-13T15:04:55;102107.25;;;13.94;100.00
58947;BME280;44724;52.332;4.978;2022-11-13T15:07:40;102108.66;;;13.86;100.00
58947;BME280;44724;52.332;4.978;2022-11-13T15:10:27;102114.50;;;13.69;100.00
58947;BME280;44724;52.332;4.978;2022-11-13T15:13:14;102101.19;;;13.50;100.00
58947;BME280;44724;52.332;4.978;2022-11-13T15:15:58;102106.19;;;13.38;100.00
58947;BME280;44724;52.332;4.978;2022-11-13T15:18:51;102098.34;;;13.25;100.00
58947;BME280;44724;52.332;4.978;2022-11-13T15:21:37;102101.97;;;13.10;100.00
58947;BME280;44724;52.332;4.978;2022-11-13T15:24:22;102094.44;;;12.95;100.00
58947;BME280;44724;52.332;4.978;2022-11-13T15:27:12;102092.72;;;12.79;100.00
58947;BME280;44724;52.332;4.978;2022-11-13T15:29:56;102096.03;;;12.65;100.00